Time;durP1;ratioP1;P1;durP2;ratioP2;P2;SDS_P1;SDS_P2;PMS_P1;PMS_P2;Temp;Humidity;BMP_temperature;BMP_pressure;BME280_temperature;BME280_humidity;BME280_pressure;Samples;Min_cycle;Max_cycle;Signal;HPM_P1;HPM_P2
2024/01/19 00:01:11;;;;;;;11.83;6.70;;;;;;;-2.24;100.00;101317.03;4965705;28;20457;-91
2024/01/19 00:03:37;;;;;;;10.03;5.73;;;;;;;-2.24;100.00;101319.59;4964355;28;20049;-91
2024/01/19 00:06:02;;;;;;;8.60;5.50;;;;;;;-2.24;100.00;101316.19;4969312;28;20043;-92
2024/01/19 00:08:27;;;;;;;9.13;5.13;;;;;;;-2.24;100.00;101311.94;4969655;28;20077;-91
2024/01/19 00:10:53;;;;;;;10.53;5.17;;;;;;;-2.22;100.00;101309.47;4954553;28;20066;-92
2024/01/19 00:13:18;;;;;;;8.47;5.23;;;;;;;-2.20;100.00;101318.00;4970781;28;20105;-91
2024/01/19 00:15:44;;;;;;;9.40;5.97;;;;;;;-2.21;100.00;101306.94;4972043;28;20661;-91
2024/01/19 00:18:10;;;;;;;9.73;5.77;;;;;;;-2.22;100.00;101319.66;4967229;28;20035;-91
2024/01/19 00:20:36;;;;;;;9.37;5.77;;;;;;;-2.22;100.00;101312.00;4970732;28;20030;-90
2024/01/19 00:23:01;;;;;;;9.50;6.03;;;;;;;-2.23;100.00;101307.72;4969525;28;20031;-91
2024/01/19 00:25:26;;;;;;;10.47;6.00;;;;;;;-2.24;100.00;101311.09;4971715;28;20023;-91
2024/01/19 00:27:52;;;;;;;9.30;5.40;;;;;;;-2.27;100.00;101316.91;4952043;28;20114;-91
2024/01/19 00:30:17;;;;;;;8.97;5.03;;;;;;;-2.30;100.00;101319.34;4973995;28;20066;-90
2024/01/19 00:32:42;;;;;;;10.13;5.97;;;;;;;-2.31;100.00;101325.28;4970540;28;20027;-91
2024/01/19 00:35:08;;;;;;;8.20;5.10;;;;;;;-2.33;100.00;101317.56;4968852;28;20030;-91
2024/01/19 00:37:33;;;;;;;8.63;5.33;;;;;;;-2.34;100.00;101320.09;4953917;28;20033;-91
2024/01/19 00:39:58;;;;;;;9.73;4.83;;;;;;;-2.36;100.00;101329.34;4951462;28;20122;-90
2024/01/19 00:42:24;;;;;;;8.30;5.07;;;;;;;-2.36;100.00;101340.41;4969655;28;20026;-92
2024/01/19 00:44:49;;;;;;;10.70;5.63;;;;;;;-2.38;100.00;101339.47;4968626;28;20050;-91
2024/01/19 00:47:14;;;;;;;12.10;5.73;;;;;;;-2.39;100.00;101342.84;4951814;28;20080;-91
2024/01/19 00:49:40;;;;;;;10.53;6.00;;;;;;;-2.43;100.00;101341.00;4973180;28;20431;-90
2024/01/19 00:52:05;;;;;;;10.07;5.17;;;;;;;-2.42;100.00;101350.41;4952275;28;20035;-91
2024/01/19 00:54:30;;;;;;;9.27;5.83;;;;;;;-2.45;100.00;101353.69;4956330;28;20038;-92
2024/01/19 00:56:56;;;;;;;9.47;4.53;;;;;;;-2.41;100.00;101357.22;4970407;28;20041;-89
2024/01/19 00:59:21;;;;;;;11.47;5.20;;;;;;;-2.38;100.00;101366.66;4953535;28;20019;-91
2024/01/19 01:01:46;;;;;;;8.57;5.03;;;;;;;-2.33;100.00;101362.59;4950871;28;20030;-91
2024/01/19 01:04:12;;;;;;;10.43;5.47;;;;;;;-2.31;100.00;101369.47;4955218;28;20081;-92
2024/01/19 01:06:37;;;;;;;9.23;5.20;;;;;;;-2.30;100.00;101368.66;4967411;28;20074;-91
2024/01/19 01:09:03;;;;;;;12.13;4.73;;;;;;;-2.27;100.00;101372.13;4968149;28;20039;-91
2024/01/19 01:11:29;;;;;;;9.47;5.20;;;;;;;-2.27;100.00;101361.94;4971179;28;20435;-91
2024/01/19 01:13:55;;;;;;;8.03;4.40;;;;;;;-2.24;100.00;101367.16;4969895;28;20037;-92
2024/01/19 01:16:20;;;;;;;6.87;4.13;;;;;;;-2.21;100.00;101367.22;4972266;28;20081;-91
2024/01/19 01:18:45;;;;;;;8.60;4.40;;;;;;;-2.17;100.00;101371.63;4973523;28;20099;-92
2024/01/19 01:21:11;;;;;;;8.17;4.17;;;;;;;-2.13;100.00;101374.34;4970028;28;20109;-91
2024/01/19 01:23:36;;;;;;;10.47;5.00;;;;;;;-2.09;100.00;101369.34;4951457;28;20026;-92
2024/01/19 01:26:02;;;;;;;8.97;4.60;;;;;;;-2.08;100.00;101359.22;4968473;28;20081;-90
2024/01/19 01:28:28;;;;;;;8.03;4.40;;;;;;;-2.07;100.00;101360.97;4953085;28;20038;-90
2024/01/19 01:30:53;;;;;;;9.37;4.57;;;;;;;-2.06;100.00;101367.78;4971968;28;20477;-91
2024/01/19 01:33:20;;;;;;;6.77;3.90;;;;;;;-2.06;100.00;101377.09;4966666;28;20054;-91
2024/01/19 01:35:45;;;;;;;8.20;4.40;;;;;;;-2.04;100.00;101396.72;4954370;28;20022;-92
2024/01/19 01:38:10;;;;;;;6.30;4.07;;;;;;;-2.02;100.00;101405.31;4972448;28;20023;-92
2024/01/19 01:40:36;;;;;;;8.20;4.33;;;;;;;-2.05;100.00;101392.44;4968389;28;20035;-91
2024/01/19 01:43:02;;;;;;;9.07;4.33;;;;;;;-2.05;100.00;101384.78;4970208;28;20026;-91
2024/01/19 01:45:29;;;;;;;8.07;4.40;;;;;;;-2.04;100.00;101366.13;4965614;28;20125;-91
2024/01/19 01:47:55;;;;;;;9.13;4.90;;;;;;;-2.07;100.00;101371.16;4972542;28;20035;-92
2024/01/19 01:50:21;;;;;;;7.60;3.97;;;;;;;-2.13;100.00;101370.94;4972081;28;20388;-90
2024/01/19 01:52:46;;;;;;;9.27;4.30;;;;;;;-2.18;100.00;101377.53;4961479;28;20034;-90
2024/01/19 01:55:12;;;;;;;7.67;4.50;;;;;;;-2.23;100.00;101385.03;4971685;28;20366;-91
2024/01/19 01:57:41;;;;;;;7.50;3.97;;;;;;;-2.26;100.00;101391.72;4971636;28;20222;-91
2024/01/19 02:00:08;;;;;;;8.43;4.10;;;;;;;-2.28;100.00;101381.44;4971710;28;20114;-91
2024/01/19 02:02:34;;;;;;;6.83;4.20;;;;;;;-2.27;100.00;101392.53;4971627;28;20142;-91
2024/01/19 02:05:00;;;;;;;8.97;4.27;;;;;;;-2.30;100.00;101391.59;4970833;28;20062;-91
2024/01/19 02:07:25;;;;;;;7.87;4.40;;;;;;;-2.29;100.00;101395.00;4962186;28;20047;-90
2024/01/19 02:09:50;;;;;;;8.77;4.30;;;;;;;-2.31;100.00;101399.19;4955783;28;20027;-92
2024/01/19 02:12:16;;;;;;;7.23;3.83;;;;;;;-2.33;100.00;101396.56;4970637;28;20050;-91
2024/01/19 02:14:41;;;;;;;7.67;3.97;;;;;;;-2.35;100.00;101398.19;4960849;28;20553;-90
2024/01/19 02:17:06;;;;;;;8.43;4.10;;;;;;;-2.37;100.00;101412.56;4971271;28;20019;-90
2024/01/19 02:19:35;;;;;;;8.80;3.90;;;;;;;-2.36;100.00;101413.44;4961990;28;20113;-92
2024/01/19 02:22:02;;;;;;;8.60;4.13;;;;;;;-2.35;100.00;101412.63;4963019;28;20035;-90
2024/01/19 02:24:27;;;;;;;6.40;3.87;;;;;;;-2.35;100.00;101420.28;4965238;28;20566;-90
2024/01/19 02:26:55;;;;;;;9.47;4.37;;;;;;;-2.36;100.00;101426.19;4971076;28;20027;-92
2024/01/19 02:29:20;;;;;;;8.37;4.53;;;;;;;-2.39;100.00;101424.38;4970332;28;20098;-90
2024/01/19 02:31:46;;;;;;;8.43;3.90;;;;;;;-2.39;100.00;101420.97;4971717;28;20126;-90
2024/01/19 02:34:11;;;;;;;6.83;3.63;;;;;;;-2.39;100.00;101426.06;4964200;28;20041;-91
2024/01/19 02:36:36;;;;;;;8.00;3.90;;;;;;;-2.39;100.00;101428.63;4971592;28;20034;-90
2024/01/19 02:39:02;;;;;;;7.47;3.80;;;;;;;-2.42;100.00;101424.28;4971444;28;20542;-92
2024/01/19 02:41:27;;;;;;;6.30;3.60;;;;;;;-2.44;100.00;101421.66;4963966;28;20460;-90
2024/01/19 02:43:52;;;;;;;6.63;3.53;;;;;;;-2.46;100.00;101442.81;4971272;28;20431;-91
2024/01/19 02:46:20;;;;;;;6.10;3.53;;;;;;;-2.50;100.00;101440.94;4962661;28;20023;-92
2024/01/19 02:48:45;;;;;;;6.87;3.37;;;;;;;-2.50;100.00;101451.16;4971320;28;20495;-91
2024/01/19 02:51:11;;;;;;;6.73;3.10;;;;;;;-2.49;100.00;101452.88;4958757;28;20033;-90
2024/01/19 02:53:36;;;;;;;7.03;3.50;;;;;;;-2.49;100.00;101450.34;4964298;28;20546;-90
2024/01/19 02:56:01;;;;;;;5.57;3.00;;;;;;;-2.50;100.00;101452.03;4970276;28;20089;-91
2024/01/19 02:58:27;;;;;;;6.90;3.30;;;;;;;-2.51;100.00;101454.50;4958904;28;20104;-90
2024/01/19 03:00:54;;;;;;;7.60;3.33;;;;;;;-2.52;100.00;101457.84;4957644;28;20086;-90
2024/01/19 03:03:19;;;;;;;5.47;3.10;;;;;;;-2.53;100.00;101461.22;4960260;28;20084;-91
2024/01/19 03:05:45;;;;;;;7.23;3.57;;;;;;;-2.54;100.00;101459.47;4960543;28;20054;-91
2024/01/19 03:08:10;;;;;;;6.90;3.30;;;;;;;-2.55;100.00;101462.81;4971038;28;20045;-91
2024/01/19 03:10:35;;;;;;;6.37;2.97;;;;;;;-2.57;100.00;101460.22;4970800;28;20398;-90
2024/01/19 03:13:01;;;;;;;5.83;2.90;;;;;;;-2.59;100.00;101461.84;4971005;28;20053;-90
2024/01/19 03:15:26;;;;;;;8.07;3.30;;;;;;;-2.60;100.00;101461.00;4970891;28;20388;-91
2024/01/19 03:17:51;;;;;;;5.37;2.93;;;;;;;-2.62;100.00;101457.53;4960723;28;20015;-91
2024/01/19 03:20:17;;;;;;;5.70;3.13;;;;;;;-2.63;100.00;101458.31;4970577;28;20503;-90
2024/01/19 03:22:42;;;;;;;9.27;3.27;;;;;;;-2.64;100.00;101463.34;4959827;28;20030;-91
2024/01/19 03:25:07;;;;;;;6.40;3.17;;;;;;;-2.66;100.00;101465.00;4959721;28;20282;-91
2024/01/19 03:27:33;;;;;;;5.10;3.13;;;;;;;-2.68;100.00;101470.00;4970771;28;20388;-91
2024/01/19 03:29:58;;;;;;;6.57;3.17;;;;;;;-2.67;100.00;101473.44;4970338;28;20408;-91
2024/01/19 03:32:24;;;;;;;6.73;3.20;;;;;;;-2.68;100.00;101470.00;4970461;28;20601;-91
2024/01/19 03:34:49;;;;;;;6.77;3.27;;;;;;;-2.68;100.00;101472.56;4963480;28;20023;-90
2024/01/19 03:37:15;;;;;;;6.07;3.40;;;;;;;-2.69;100.00;101464.88;4957586;28;20187;-91
2024/01/19 03:39:40;;;;;;;6.43;3.20;;;;;;;-2.66;100.00;101470.09;4970580;28;20030;-91
2024/01/19 03:42:05;;;;;;;6.63;3.60;;;;;;;-2.67;100.00;101458.16;4960327;28;20105;-89
2024/01/19 03:44:31;;;;;;;4.70;2.90;;;;;;;-2.66;100.00;101463.31;4956558;28;20030;-91
2024/01/19 03:46:59;;;;;;;5.00;3.10;;;;;;;-2.66;100.00;101470.94;4970218;28;20035;-90
2024/01/19 03:49:24;;;;;;;4.80;2.80;;;;;;;-2.64;100.00;101465.88;4957313;28;20055;-91
2024/01/19 03:52:05;;;;;;;6.43;3.37;;;;;;;-2.63;100.00;101476.16;4969881;28;20343;-90
2024/01/19 03:54:34;;;;;;;5.57;3.50;;;;;;;-2.62;100.00;101483.00;4969748;28;20490;-91
2024/01/19 03:57:07;;;;;;;6.77;3.80;;;;;;;-2.61;100.00;101479.63;4969367;28;20034;-90
2024/01/19 03:59:33;;;;;;;6.70;3.67;;;;;;;-2.60;100.00;101476.28;4970160;28;20034;-90
2024/01/19 04:01:58;;;;;;;5.47;3.50;;;;;;;-2.59;100.00;101469.50;4959696;28;20027;-90
2024/01/19 04:04:25;;;;;;;7.13;3.53;;;;;;;-2.60;100.00;101478.81;4957940;28;20037;-90
2024/01/19 04:06:52;;;;;;;7.27;3.53;;;;;;;-2.60;100.00;101476.28;4961376;28;20137;-91
2024/01/19 04:09:18;;;;;;;5.73;3.80;;;;;;;-2.59;100.00;101472.03;4970087;28;20584;-90
2024/01/19 04:11:44;;;;;;;6.50;3.90;;;;;;;-2.58;100.00;101478.03;4970135;28;20022;-91
2024/01/19 04:14:10;;;;;;;7.17;3.77;;;;;;;-2.58;100.00;101483.97;4969964;28;20027;-90
2024/01/19 04:16:37;;;;;;;5.47;3.80;;;;;;;-2.56;100.00;101481.50;4970023;28;20039;-90
2024/01/19 04:19:03;;;;;;;7.57;4.00;;;;;;;-2.54;100.00;101487.50;4969939;28;20034;-90
2024/01/19 04:21:30;;;;;;;7.83;4.33;;;;;;;-2.52;100.00;101489.31;4969514;28;20023;-90
2024/01/19 04:23:55;;;;;;;8.13;4.30;;;;;;;-2.53;100.00;101491.78;4960744;28;20037;-91
2024/01/19 04:26:21;;;;;;;9.37;4.27;;;;;;;-2.50;100.00;101502.97;4962457;28;20106;-93
2024/01/19 04:28:46;;;;;;;7.80;4.40;;;;;;;-2.51;100.00;101498.69;4969964;28;20053;-91
2024/01/19 04:31:11;;;;;;;7.70;4.13;;;;;;;-2.51;100.00;101508.00;4972833;28;20485;-90
2024/01/19 04:33:37;;;;;;;7.13;4.30;;;;;;;-2.48;100.00;101513.22;4960988;28;20023;-91
2024/01/19 04:36:02;;;;;;;7.67;3.77;;;;;;;-2.48;100.00;101513.22;4964079;28;20031;-89
2024/01/19 04:38:28;;;;;;;6.83;4.10;;;;;;;-2.48;100.00;101506.47;4957156;28;20764;-90
2024/01/19 04:40:54;;;;;;;8.70;4.90;;;;;;;-2.47;100.00;101512.41;4972235;28;20038;-91
2024/01/19 04:43:19;;;;;;;7.80;4.47;;;;;;;-2.47;100.00;101512.41;4972213;28;20054;-91
2024/01/19 04:45:45;;;;;;;9.73;4.83;;;;;;;-2.49;100.00;101520.00;4973519;28;20050;-90
2024/01/19 04:48:10;;;;;;;8.27;4.80;;;;;;;-2.48;100.00;101531.06;4960059;28;20046;-91
2024/01/19 04:50:36;;;;;;;8.83;4.80;;;;;;;-2.47;100.00;101532.78;4972369;28;20392;-91
2024/01/19 04:53:01;;;;;;;8.47;4.63;;;;;;;-2.48;100.00;101539.59;4963466;28;20062;-91
2024/01/19 04:55:26;;;;;;;8.67;4.90;;;;;;;-2.46;100.00;101540.50;4973315;28;20031;-91
2024/01/19 04:57:52;;;;;;;11.17;5.00;;;;;;;-2.43;100.00;101539.75;4972887;28;20030;-91
2024/01/19 05:00:17;;;;;;;8.70;5.10;;;;;;;-2.44;100.00;101550.75;4972616;28;20026;-90
2024/01/19 05:02:43;;;;;;;10.57;5.23;;;;;;;-2.43;100.00;101539.75;4970258;28;20018;-91
2024/01/19 05:05:08;;;;;;;9.00;5.20;;;;;;;-2.44;100.00;101538.88;4971113;28;20704;-91
2024/01/19 05:07:34;;;;;;;8.20;5.10;;;;;;;-2.44;100.00;101543.97;4973619;28;20043;-90
2024/01/19 05:10:00;;;;;;;8.13;5.00;;;;;;;-2.44;100.00;101548.22;4973994;28;20034;-91
2024/01/19 05:12:25;;;;;;;7.90;5.20;;;;;;;-2.45;100.00;101547.31;4957653;28;20030;-91
2024/01/19 05:14:51;;;;;;;9.37;5.40;;;;;;;-2.46;100.00;101549.81;4973270;28;20026;-91
2024/01/19 05:17:17;;;;;;;9.37;5.60;;;;;;;-2.48;100.00;101548.88;4975642;28;20519;-90
2024/01/19 05:19:43;;;;;;;9.80;5.47;;;;;;;-2.49;100.00;101564.97;4971003;28;20034;-90
2024/01/19 05:22:08;;;;;;;8.40;5.60;;;;;;;-2.49;100.00;101567.53;4971510;28;20042;-91
2024/01/19 05:24:33;;;;;;;8.73;5.30;;;;;;;-2.48;100.00;101574.38;4972398;28;20034;-89
2024/01/19 05:26:59;;;;;;;9.47;5.30;;;;;;;-2.48;100.00;101571.81;4960080;28;20030;-92
2024/01/19 05:29:24;;;;;;;10.00;5.20;;;;;;;-2.48;100.00;101584.56;4967332;28;20460;-90
2024/01/19 05:31:50;;;;;;;9.97;5.37;;;;;;;-2.50;100.00;101589.59;4961355;28;20018;-91
2024/01/19 05:34:15;;;;;;;9.00;5.27;;;;;;;-2.51;100.00;101586.97;4962316;28;20066;-90
2024/01/19 05:36:42;;;;;;;11.63;5.40;;;;;;;-2.50;100.00;101593.81;4963946;28;20081;-92
2024/01/19 05:39:07;;;;;;;9.27;5.23;;;;;;;-2.49;100.00;101603.19;4961118;28;20026;-90
2024/01/19 05:41:33;;;;;;;12.00;5.73;;;;;;;-2.48;100.00;101602.41;4971818;28;20078;-90
2024/01/19 05:43:59;;;;;;;9.53;5.63;;;;;;;-2.45;100.00;101607.63;4959459;28;20038;-90
2024/01/19 05:46:24;;;;;;;8.27;5.03;;;;;;;-2.43;100.00;101611.09;4961854;28;20050;-91
2024/01/19 05:48:50;;;;;;;9.70;5.30;;;;;;;-2.38;100.00;101614.69;4972469;28;20030;-90
2024/01/19 05:51:16;;;;;;;10.17;5.20;;;;;;;-2.36;100.00;101628.34;4960772;28;20027;-91
2024/01/19 05:53:43;;;;;;;8.73;5.20;;;;;;;-2.32;100.00;101632.78;4962039;28;20022;-91
2024/01/19 05:56:08;;;;;;;10.73;5.20;;;;;;;-2.27;100.00;101643.16;4972789;28;20516;-91
2024/01/19 05:58:34;;;;;;;11.50;5.70;;;;;;;-2.25;100.00;101653.44;4965700;28;20110;-91
2024/01/19 06:01:02;;;;;;;6.90;4.23;;;;;;;-2.21;100.00;101673.09;4964297;28;20109;-92
2024/01/19 06:03:28;;;;;;;9.00;5.40;;;;;;;-2.22;100.00;101696.88;4971799;28;20027;-92
2024/01/19 06:05:53;;;;;;;8.27;5.20;;;;;;;-2.26;100.00;101698.41;4962226;28;20106;-91
2024/01/19 06:08:18;;;;;;;10.00;5.63;;;;;;;-2.26;100.00;101692.47;4964621;28;20566;-92
2024/01/19 06:10:44;;;;;;;10.67;5.30;;;;;;;-2.24;100.00;101689.16;4972842;28;20030;-90
2024/01/19 06:13:11;;;;;;;7.27;4.80;;;;;;;-2.21;100.00;101684.19;4961431;28;20714;-91
2024/01/19 06:15:36;;;;;;;9.97;5.47;;;;;;;-2.18;100.00;101688.53;4971988;28;20058;-90
2024/01/19 06:18:02;;;;;;;8.33;5.57;;;;;;;-2.14;100.00;101700.59;4967179;28;20062;-90
2024/01/19 06:20:27;;;;;;;9.50;5.03;;;;;;;-2.15;100.00;101693.75;4966514;28;20066;-91
2024/01/19 06:22:53;;;;;;;10.37;5.57;;;;;;;-2.15;100.00;101696.31;4953559;28;20022;-90
2024/01/19 06:25:18;;;;;;;8.90;5.33;;;;;;;-2.16;100.00;101699.66;4958783;28;20479;-90
2024/01/19 06:27:44;;;;;;;11.53;5.63;;;;;;;-2.17;100.00;101705.56;4970654;28;20039;-91
2024/01/19 06:30:10;;;;;;;9.67;5.00;;;;;;;-2.17;100.00;101700.47;4963157;28;20132;-90
2024/01/19 06:32:36;;;;;;;11.03;5.67;;;;;;;-2.17;100.00;101711.56;4970681;28;20480;-90
2024/01/19 06:35:01;;;;;;;10.70;5.90;;;;;;;-2.15;100.00;101711.59;4963645;28;20039;-90
2024/01/19 06:37:26;;;;;;;10.47;6.17;;;;;;;-2.14;100.00;101711.69;4958946;28;20469;-90
2024/01/19 06:39:52;;;;;;;10.33;5.87;;;;;;;-2.10;100.00;101717.78;4961951;28;20061;-91
2024/01/19 06:42:17;;;;;;;10.17;5.73;;;;;;;-2.11;100.00;101723.69;4941130;28;20054;-89
2024/01/19 06:44:43;;;;;;;10.10;5.77;;;;;;;-2.15;100.00;101709.94;4971491;28;20022;-90
2024/01/19 06:47:09;;;;;;;9.30;5.80;;;;;;;-2.18;100.00;101714.03;4958440;28;20029;-90
2024/01/19 06:49:36;;;;;;;10.30;6.03;;;;;;;-2.24;100.00;101709.53;4971899;28;20027;-89
2024/01/19 06:52:04;;;;;;;10.60;6.20;;;;;;;-2.28;100.00;101707.66;4958198;28;20400;-90
2024/01/19 06:54:30;;;;;;;11.27;6.03;;;;;;;-2.34;100.00;101715.09;4969782;28;20027;-91
2024/01/19 06:56:55;;;;;;;12.10;6.40;;;;;;;-2.40;100.00;101723.34;4962424;28;20030;-90
2024/01/19 06:59:21;;;;;;;9.87;6.53;;;;;;;-2.44;100.00;101729.13;4970485;28;20033;-90
2024/01/19 07:01:46;;;;;;;11.30;6.20;;;;;;;-2.46;100.00;101733.28;4971534;28;20030;-90
2024/01/19 07:04:11;;;;;;;9.37;6.03;;;;;;;-2.49;100.00;101738.25;4971219;28;20029;-90
2024/01/19 07:06:37;;;;;;;9.57;5.97;;;;;;;-2.53;100.00;101741.44;4958936;28;20051;-90
2024/01/19 07:09:02;;;;;;;12.03;6.33;;;;;;;-2.55;100.00;101751.59;4960916;28;20027;-91
2024/01/19 07:11:28;;;;;;;10.43;6.10;;;;;;;-2.59;100.00;101749.72;4963952;28;21437;-90
2024/01/19 07:13:53;;;;;;;10.10;6.03;;;;;;;-2.61;100.00;101758.97;4971147;28;20435;-91
2024/01/19 07:16:19;;;;;;;11.70;6.23;;;;;;;-2.63;100.00;101761.47;4971284;28;20050;-90
2024/01/19 07:18:44;;;;;;;10.73;6.30;;;;;;;-2.66;100.00;101763.88;4962984;28;20018;-90
2024/01/19 07:21:09;;;;;;;9.67;6.13;;;;;;;-2.67;100.00;101777.41;4971108;28;20027;-90
2024/01/19 07:23:35;;;;;;;9.57;5.90;;;;;;;-2.70;100.00;101777.25;4970780;28;20026;-90
2024/01/19 07:26:01;;;;;;;10.43;6.23;;;;;;;-2.72;100.00;101781.41;4964356;28;20081;-90
2024/01/19 07:28:26;;;;;;;9.77;6.10;;;;;;;-2.72;100.00;101789.06;4959526;28;20023;-90
2024/01/19 07:30:52;;;;;;;13.07;5.80;;;;;;;-2.72;100.00;101786.50;4971389;28;20033;-90
2024/01/19 07:33:17;;;;;;;11.43;6.13;;;;;;;-2.75;100.00;101787.25;4958630;28;20118;-90
2024/01/19 07:35:42;;;;;;;10.77;6.07;;;;;;;-2.77;100.00;101788.00;4974296;28;20034;-91
2024/01/19 07:38:08;;;;;;;13.30;6.03;;;;;;;-2.80;100.00;101787.84;4971933;28;20097;-92
2024/01/19 07:40:33;;;;;;;10.53;6.10;;;;;;;-2.79;100.00;101789.59;4973022;28;20077;-92
2024/01/19 07:42:58;;;;;;;9.10;5.50;;;;;;;-2.82;100.00;101803.06;4972061;28;20039;-90
2024/01/19 07:45:24;;;;;;;9.43;5.70;;;;;;;-2.81;100.00;101806.50;4970577;28;20042;-91
2024/01/19 07:47:49;;;;;;;10.23;6.37;;;;;;;-2.83;100.00;101803.00;4958034;28;20027;-90
2024/01/19 07:50:14;;;;;;;11.70;5.77;;;;;;;-2.84;100.00;101807.22;4958390;28;20022;-90
2024/01/19 07:52:40;;;;;;;9.20;5.73;;;;;;;-2.85;100.00;101808.03;4961364;28;20031;-90
2024/01/19 07:55:05;;;;;;;8.57;5.90;;;;;;;-2.86;100.00;101813.94;4958269;28;20087;-89
2024/01/19 07:57:31;;;;;;;9.40;5.70;;;;;;;-2.87;100.00;101806.19;4961421;28;20034;-90
2024/01/19 07:59:56;;;;;;;11.57;6.30;;;;;;;-2.88;100.00;101812.97;4953899;28;20459;-89
2024/01/19 08:02:22;;;;;;;10.83;6.07;;;;;;;-2.89;100.00;101823.97;4968654;28;20043;-90
2024/01/19 08:04:47;;;;;;;11.00;5.90;;;;;;;-2.88;100.00;101825.72;4974235;28;20396;-90
2024/01/19 08:07:12;;;;;;;8.67;5.80;;;;;;;-2.90;100.00;101823.09;4980337;28;20057;-90
2024/01/19 08:09:38;;;;;;;8.87;5.90;;;;;;;-2.86;100.00;101831.75;4985151;28;20030;-90
2024/01/19 08:12:03;;;;;;;10.47;6.03;;;;;;;-2.85;100.00;101835.16;4988378;28;20468;-90
2024/01/19 08:14:29;;;;;;;10.40;6.50;;;;;;;-2.85;100.00;101836.03;4981863;28;20035;-89
2024/01/19 08:16:54;;;;;;;8.60;5.83;;;;;;;-2.85;100.00;101841.13;4975028;28;20058;-89
2024/01/19 08:19:19;;;;;;;9.43;6.17;;;;;;;-2.84;100.00;101847.09;4980224;28;20037;-91
2024/01/19 08:21:45;;;;;;;9.17;6.20;;;;;;;-2.82;100.00;101848.03;4983067;28;20026;-90
2024/01/19 08:24:12;;;;;;;9.30;6.27;;;;;;;-2.81;100.00;101849.78;4975933;28;20034;-89
2024/01/19 08:26:38;;;;;;;11.63;5.80;;;;;;;-2.79;100.00;101860.91;4978297;28;20022;-90
2024/01/19 08:29:03;;;;;;;9.40;5.90;;;;;;;-2.79;100.00;101855.81;4980342;28;20498;-90
2024/01/19 08:31:30;;;;;;;13.33;6.47;;;;;;;-2.78;100.00;101857.56;4976607;28;20032;-90
2024/01/19 08:33:56;;;;;;;11.40;6.77;;;;;;;-2.78;100.00;101858.41;4980386;28;20038;-91
2024/01/19 08:36:24;;;;;;;11.80;6.30;;;;;;;-2.77;100.00;101851.69;4986599;28;20033;-90
2024/01/19 08:38:53;;;;;;;12.40;7.10;;;;;;;-2.74;100.00;101859.47;4968961;28;20514;-91
2024/01/19 08:41:18;;;;;;;12.10;6.40;;;;;;;-2.73;100.00;101861.16;4963722;28;20030;-90
2024/01/19 08:43:44;;;;;;;10.33;5.83;;;;;;;-2.69;100.00;101864.75;4983468;28;20079;-91
2024/01/19 08:46:13;;;;;;;11.07;6.60;;;;;;;-2.66;100.00;101867.44;4972107;28;20069;-90
2024/01/19 08:48:40;;;;;;;12.20;6.50;;;;;;;-2.60;100.00;101883.88;4973085;28;20033;-90
2024/01/19 08:51:06;;;;;;;10.50;6.30;;;;;;;-2.54;100.00;101879.84;4972973;28;20022;-91
2024/01/19 08:53:35;;;;;;;10.03;6.53;;;;;;;-2.48;100.00;101883.56;4976338;28;20574;-94
2024/01/19 08:56:20;;;;;;;10.33;5.97;;;;;;;-2.40;100.00;101885.56;4983293;28;20027;-91
2024/01/19 08:59:14;;;;;;;;;;;;;;;;;;;;;
2024/01/19 09:01:39;;;;;;;11.30;6.20;;;;;;;-2.28;100.00;101891.19;4983330;28;20026;-92
2024/01/19 09:04:06;;;;;;;12.17;6.47;;;;;;;-2.22;100.00;101881.28;4979202;28;20445;-92
2024/01/19 09:06:33;;;;;;;11.93;6.53;;;;;;;-2.21;100.00;101887.22;4955030;28;20051;-91
2024/01/19 09:09:01;;;;;;;11.93;7.20;;;;;;;-2.18;100.00;101897.56;4982179;28;20026;-92
2024/01/19 09:11:26;;;;;;;12.63;6.83;;;;;;;-2.19;100.00;101906.03;4981134;28;20089;-90
2024/01/19 09:13:52;;;;;;;14.47;7.63;;;;;;;-2.18;100.00;101902.66;4969801;28;20475;-91
2024/01/19 09:16:18;;;;;;;12.20;6.57;;;;;;;-2.16;100.00;101916.34;4981971;28;20134;-90
2024/01/19 09:18:44;;;;;;;11.10;6.60;;;;;;;-2.14;100.00;101914.75;4986190;28;20022;-93
2024/01/19 09:21:18;;;;;;;11.60;6.80;;;;;;;-2.13;100.00;101913.94;4982429;28;20034;-91
2024/01/19 09:23:47;;;;;;;12.43;6.37;;;;;;;-2.09;100.00;101920.03;4981273;28;21439;-93
2024/01/19 09:26:22;;;;;;;9.70;5.77;;;;;;;-2.07;100.00;101926.09;4977557;28;20027;-92
2024/01/19 09:28:49;;;;;;;9.93;6.13;;;;;;;-2.02;100.00;101933.13;4966965;28;20042;-93
2024/01/19 09:31:46;;;;;;;;;;;;;;;;;;;;;
2024/01/19 09:34:01;;;;;;;10.57;6.00;;;;;;;-1.97;100.00;101943.56;4973883;28;20045;-90
2024/01/19 09:36:29;;;;;;;10.80;6.07;;;;;;;-1.91;100.00;101942.94;4967260;28;20018;-93
2024/01/19 09:39:12;;;;;;;;;;;;;;;;;;;;;
2024/01/19 09:41:39;;;;;;;10.77;6.50;;;;;;;-1.82;100.00;101948.44;4982734;28;20551;-92
2024/01/19 09:44:10;;;;;;;11.83;6.17;;;;;;;-1.80;100.00;101951.06;4978925;28;20106;-92
2024/01/19 09:46:53;;;;;;;8.52;5.82;;;;;;;-1.73;100.00;101953.06;4969819;28;20035;-94
2024/01/19 09:49:46;;;;;;;10.47;6.17;;;;;;;-1.72;100.00;101950.59;4980105;28;20455;-94
2024/01/19 09:52:27;;;;;;;11.53;5.40;;;;;;;-1.66;100.00;101962.72;4967029;28;20491;-92
2024/01/19 09:54:54;;;;;;;9.82;6.22;;;;;;;-1.63;100.00;101965.41;4975048;28;20393;-91
2024/01/19 10:00:20;;;;;;;9.40;5.93;;;;;;;-1.56;100.00;101971.66;4982741;28;20034;-91
2024/01/19 10:02:59;;;;;;;;;;;;;;;;;;;;;
2024/01/19 10:05:36;;;;;;;11.27;5.30;;;;;;;-1.48;100.00;101983.03;4978058;28;20029;-93
2024/01/19 10:08:06;;;;;;;10.27;5.80;;;;;;;-1.44;100.00;101977.25;4963197;28;20091;-92
2024/01/19 10:10:31;;;;;;;9.13;5.00;;;;;;;-1.40;100.00;101988.47;4958906;28;20765;-90
2024/01/19 10:12:56;;;;;;;10.97;5.43;;;;;;;-1.34;100.00;101998.94;4959463;28;20062;-91
2024/01/19 10:15:23;;;;;;;8.63;5.13;;;;;;;-1.30;100.00;101999.94;4938621;28;20058;-92
2024/01/19 10:17:49;;;;;;;8.00;5.20;;;;;;;-1.25;100.00;101996.75;4960185;28;20035;-91
2024/01/19 10:20:15;;;;;;;9.23;5.63;;;;;;;-1.20;100.00;101999.53;4939492;28;20086;-91
2024/01/19 10:22:41;;;;;;;11.50;5.73;;;;;;;-1.16;100.00;102001.38;4933742;28;20023;-92
2024/01/19 10:25:10;;;;;;;9.50;5.50;;;;;;;-1.13;100.00;101998.94;4945537;28;20054;-89
2024/01/19 10:27:41;;;;;;;7.73;5.23;;;;;;;-1.08;100.00;101996.56;4954925;28;20030;-92
2024/01/19 10:30:10;;;;;;;8.57;5.50;;;;;;;-1.04;100.00;101992.50;4963736;28;20468;-91
2024/01/19 10:32:37;;;;;;;8.97;5.70;;;;;;;-0.99;100.00;101996.09;4940377;28;20065;-90
2024/01/19 10:35:09;;;;;;;8.93;5.67;;;;;;;-0.96;100.00;101992.00;4957941;28;20051;-91
2024/01/19 10:37:35;;;;;;;10.40;6.25;;;;;;;-0.93;100.00;101997.19;4960611;28;20023;-92
2024/01/19 10:40:14;;;;;;;11.77;6.47;;;;;;;-0.88;100.00;101999.97;4941157;28;20023;-91
2024/01/19 10:42:41;;;;;;;10.13;5.60;;;;;;;-0.83;100.00;102001.00;4943032;28;20043;-91
2024/01/19 10:45:17;;;;;;;10.80;6.03;;;;;;;-0.78;100.00;101996.09;4957243;28;20059;-90
2024/01/19 10:47:47;;;;;;;9.20;5.57;;;;;;;-0.72;100.00;102003.97;4957569;28;20035;-90
2024/01/19 10:50:18;;;;;;;7.50;5.20;;;;;;;-0.68;100.00;102002.41;4948758;28;20035;-91
2024/01/19 10:52:47;;;;;;;8.53;5.53;;;;;;;-0.64;100.00;102005.16;4947474;28;20023;-93
2024/01/19 10:55:19;;;;;;;9.00;5.63;;;;;;;-0.58;100.00;101998.53;4958069;28;20124;-89
2024/01/19 10:57:45;;;;;;;9.20;5.63;;;;;;;-0.54;100.00;101995.28;4953539;28;20027;-89
2024/01/19 11:00:28;;;;;;;11.03;5.57;;;;;;;-0.48;100.00;102009.19;4951599;28;20047;-88
2024/01/19 11:02:59;;;;;;;10.60;5.80;;;;;;;-0.44;100.00;102001.63;4937862;28;20031;-89
2024/01/19 11:05:26;;;;;;;12.77;6.20;;;;;;;-0.40;100.00;102006.91;4956855;28;20035;-88
2024/01/19 11:07:53;;;;;;;12.03;6.63;;;;;;;-0.36;100.00;102000.25;4987018;28;20045;-88
2024/01/19 11:10:20;;;;;;;10.23;5.97;;;;;;;-0.29;100.00;102007.34;4968048;28;20038;-88
2024/01/19 11:12:52;;;;;;;9.33;6.10;;;;;;;-0.26;100.00;102007.44;4977066;28;20093;-89
2024/01/19 11:15:32;;;;;;;8.80;5.65;;;;;;;-0.19;100.00;102009.44;4965617;28;20022;-88
2024/01/19 11:18:00;;;;;;;9.57;5.60;;;;;;;-0.14;100.00;102003.59;4976346;28;20030;-88
2024/01/19 11:20:25;;;;;;;13.20;6.63;;;;;;;-0.10;100.00;102002.91;4979139;28;20507;-88